Time;durP1;ratioP1;P1;durP2;ratioP2;P2;SDS_P1;SDS_P2;PMS_P1;PMS_P2;Temp;Humidity;BMP_temperature;BMP_pressure;BME280_temperature;BME280_humidity;BME280_pressure;Samples;Min_cycle;Max_cycle;Signal;HPM_P1;HPM_P2
2022/02/24 00:01:47;;;;;;;15.32;3.60;;;8.80;81.60;;;;;;6151730;22;100297;-76
2022/02/24 00:04:16;;;;;;;10.40;3.38;;;8.80;81.70;;;;;;6152488;22;98415;-76
2022/02/24 00:06:45;;;;;;;10.25;3.75;;;8.80;81.80;;;;;;6152388;22;98489;-77
2022/02/24 00:09:12;;;;;;;16.10;4.25;;;8.80;81.60;;;;;;6101447;22;99207;-76
2022/02/24 00:11:39;;;;;;;13.38;4.50;;;8.90;81.40;;;;;;6151420;22;98903;-76
2022/02/24 00:14:06;;;;;;;9.77;3.75;;;8.90;81.30;;;;;;6152365;22;98379;-76
2022/02/24 00:16:34;;;;;;;10.50;3.67;;;9.00;81.20;;;;;;6126312;22;97989;-76
2022/02/24 00:19:04;;;;;;;9.20;3.30;;;9.00;80.90;;;;;;6126160;22;99372;-76
2022/02/24 00:21:31;;;;;;;8.50;2.95;;;9.10;80.70;;;;;;6151590;22;98884;-77
2022/02/24 00:23:58;;;;;;;8.43;3.50;;;9.10;80.50;;;;;;6124157;22;107001;-77
2022/02/24 00:26:25;;;;;;;10.82;4.15;;;9.20;80.40;;;;;;6151917;22;98502;-77
2022/02/24 00:28:52;;;;;;;8.38;3.25;;;9.20;80.20;;;;;;6125226;22;101885;-76
2022/02/24 00:31:18;;;;;;;11.30;3.58;;;9.20;80.00;;;;;;6124965;22;101558;-77
2022/02/24 00:33:46;;;;;;;10.38;3.88;;;9.20;80.10;;;;;;6125297;22;98489;-77
2022/02/24 00:36:13;;;;;;;10.95;4.10;;;9.30;79.80;;;;;;6152155;22;98478;-77
2022/02/24 00:38:39;;;;;;;7.97;2.83;;;9.30;79.80;;;;;;6125585;22;99178;-77
2022/02/24 00:41:09;;;;;;;11.45;3.30;;;9.30;79.50;;;;;;6125134;22;101718;-77
2022/02/24 00:43:36;;;;;;;8.23;3.20;;;9.40;79.20;;;;;;6152112;22;98430;-76
2022/02/24 00:46:03;;;;;;;7.50;3.40;;;9.40;79.40;;;;;;6152376;22;98460;-76
2022/02/24 00:48:30;;;;;;;10.65;3.08;;;9.40;78.80;;;;;;6151043;22;99911;-77
2022/02/24 00:50:57;;;;;;;6.68;3.00;;;9.40;78.60;;;;;;6151180;22;99724;-77
2022/02/24 00:53:24;;;;;;;8.85;3.08;;;9.40;78.70;;;;;;6125307;22;98942;-74
2022/02/24 00:55:51;;;;;;;12.07;2.60;;;9.40;78.50;;;;;;6124896;22;98469;-73
2022/02/24 00:58:18;;;;;;;9.35;3.17;;;9.50;78.10;;;;;;6151281;22;99268;-74
2022/02/24 01:00:45;;;;;;;10.80;3.17;;;9.50;78.10;;;;;;6124799;22;99226;-74
2022/02/24 01:03:12;;;;;;;5.10;2.67;;;9.50;78.00;;;;;;6125378;22;98980;-74
2022/02/24 01:05:39;;;;;;;9.75;2.90;;;9.50;78.10;;;;;;6151863;22;97716;-74
2022/02/24 01:08:06;;;;;;;8.68;2.92;;;9.50;77.60;;;;;;6151275;22;99144;-73
2022/02/24 01:10:33;;;;;;;9.70;2.80;;;9.40;77.20;;;;;;6123384;22;117656;-74
2022/02/24 01:13:00;;;;;;;7.72;3.10;;;9.50;77.50;;;;;;6124351;22;99273;-74
2022/02/24 01:15:27;;;;;;;10.52;3.33;;;9.50;77.70;;;;;;6151800;22;99216;-74
2022/02/24 01:17:54;;;;;;;9.00;2.95;;;9.50;77.70;;;;;;6124608;22;101679;-74
2022/02/24 01:20:21;;;;;;;8.60;2.55;;;9.50;77.00;;;;;;6124819;22;98994;-74
2022/02/24 01:22:49;;;;;;;6.10;2.50;;;9.50;77.20;;;;;;6151554;22;98424;-74
2022/02/24 01:25:20;;;;;;;10.38;3.17;;;9.50;77.10;;;;;;6151627;22;98472;-74
2022/02/24 01:27:47;;;;;;;9.57;2.88;;;9.50;76.80;;;;;;6124220;22;102129;-74
2022/02/24 01:30:14;;;;;;;6.32;2.63;;;9.50;77.00;;;;;;6151537;22;99036;-73
2022/02/24 01:32:41;;;;;;;7.85;2.58;;;9.50;77.10;;;;;;6124910;22;99062;-74
2022/02/24 01:35:08;;;;;;;10.05;2.45;;;9.50;76.80;;;;;;6151710;22;98500;-74
2022/02/24 01:37:35;;;;;;;7.78;2.53;;;9.50;76.90;;;;;;6123478;22;102424;-74
2022/02/24 01:40:06;;;;;;;8.40;2.53;;;9.50;76.50;;;;;;6123923;22;102441;-74
2022/02/24 01:42:33;;;;;;;6.60;2.30;;;9.50;76.50;;;;;;6124667;22;98596;-74
2022/02/24 01:45:00;;;;;;;5.13;2.70;;;9.50;76.40;;;;;;6151423;22;98484;-74
2022/02/24 01:47:27;;;;;;;5.70;2.42;;;9.50;76.10;;;;;;6150890;22;99238;-74
2022/02/24 01:49:54;;;;;;;6.85;2.00;;;9.50;76.60;;;;;;6150683;22;98992;-73
2022/02/24 01:52:22;;;;;;;6.25;2.33;;;9.50;76.40;;;;;;6151662;22;98525;-73
2022/02/24 01:54:49;;;;;;;5.78;2.17;;;9.50;76.20;;;;;;6124911;22;97785;-74
2022/02/24 01:57:17;;;;;;;5.13;2.08;;;9.50;76.10;;;;;;6124757;22;99293;-73
2022/02/24 01:59:45;;;;;;;6.88;2.40;;;9.50;75.80;;;;;;6148873;22;101429;-73
2022/02/24 02:02:14;;;;;;;6.30;2.15;;;9.40;75.80;;;;;;6151392;22;99202;-74
2022/02/24 02:04:43;;;;;;;6.47;2.30;;;9.50;76.30;;;;;;6125812;22;99866;-73
2022/02/24 02:07:11;;;;;;;7.78;2.58;;;9.40;75.90;;;;;;6152198;22;99363;-74
2022/02/24 02:09:38;;;;;;;5.22;2.20;;;9.40;76.50;;;;;;6125128;22;101865;-74
2022/02/24 02:12:05;;;;;;;7.28;2.38;;;9.50;76.10;;;;;;6152009;22;98883;-74
2022/02/24 02:14:37;;;;;;;8.48;2.30;;;9.50;75.80;;;;;;6152545;22;98478;-74
2022/02/24 02:17:04;;;;;;;8.15;3.20;;;9.50;75.60;;;;;;6125804;22;99339;-73
2022/02/24 02:19:31;;;;;;;9.88;2.15;;;9.40;75.60;;;;;;6152684;22;99328;-74
2022/02/24 02:21:58;;;;;;;5.75;2.65;;;9.40;75.80;;;;;;6152273;22;98410;-74
2022/02/24 02:24:26;;;;;;;8.35;2.28;;;9.40;75.70;;;;;;6152361;22;98513;-74
2022/02/24 02:26:53;;;;;;;5.30;2.20;;;9.40;75.70;;;;;;6151427;22;100093;-73
2022/02/24 02:29:20;;;;;;;5.97;2.20;;;9.40;75.60;;;;;;6124982;22;106095;-74
2022/02/24 02:31:48;;;;;;;6.45;2.00;;;9.40;75.40;;;;;;6152673;22;98873;-74
2022/02/24 02:34:17;;;;;;;10.70;2.42;;;9.40;75.40;;;;;;6126109;22;98487;-74
2022/02/24 02:36:46;;;;;;;7.55;2.20;;;9.40;75.40;;;;;;6150950;22;115906;-74
2022/02/24 02:39:15;;;;;;;6.93;2.33;;;9.40;75.40;;;;;;6125170;22;101550;-73
2022/02/24 02:41:45;;;;;;;8.27;2.28;;;9.40;75.60;;;;;;6152381;22;98462;-74
2022/02/24 02:44:13;;;;;;;7.53;2.38;;;9.40;75.40;;;;;;6125640;22;97771;-74
2022/02/24 02:46:43;;;;;;;8.15;2.30;;;9.40;75.40;;;;;;6151731;22;99237;-74
2022/02/24 02:49:10;;;;;;;9.20;2.38;;;9.40;75.50;;;;;;6125723;22;99077;-74
2022/02/24 02:51:37;;;;;;;7.18;2.17;;;9.40;75.10;;;;;;6101097;22;99236;-73
2022/02/24 02:54:04;;;;;;;7.45;2.40;;;9.30;74.90;;;;;;6125804;22;98467;-74
2022/02/24 02:56:31;;;;;;;9.13;2.40;;;9.40;75.00;;;;;;6125298;22;101876;-74
2022/02/24 02:58:58;;;;;;;8.07;2.33;;;9.30;75.20;;;;;;6125159;22;109454;-74
2022/02/24 03:01:25;;;;;;;9.88;2.47;;;9.30;75.40;;;;;;6152651;22;98443;-74
2022/02/24 03:03:53;;;;;;;7.90;2.05;;;9.30;75.60;;;;;;6101124;22;98496;-74
2022/02/24 03:06:20;;;;;;;10.07;2.88;;;9.30;75.60;;;;;;6151811;22;99678;-74
2022/02/24 03:08:47;;;;;;;8.48;2.33;;;9.30;75.50;;;;;;6152202;22;99039;-73
2022/02/24 03:11:14;;;;;;;5.75;2.17;;;9.30;76.00;;;;;;6125215;22;98526;-74
2022/02/24 03:13:41;;;;;;;8.55;2.55;;;9.30;76.00;;;;;;6126096;22;98480;-74
2022/02/24 03:16:08;;;;;;;9.15;2.55;;;9.30;75.70;;;;;;6100420;22;105726;-74
2022/02/24 03:18:35;;;;;;;12.35;2.13;;;9.30;75.30;;;;;;6124815;22;102213;-74
2022/02/24 03:21:02;;;;;;;9.85;2.38;;;9.30;75.40;;;;;;6151511;22;98468;-74
2022/02/24 03:23:29;;;;;;;4.47;1.77;;;9.30;75.60;;;;;;6125161;22;98527;-74
2022/02/24 03:25:56;;;;;;;11.82;2.47;;;9.20;75.70;;;;;;6151132;22;99307;-74
2022/02/24 03:28:24;;;;;;;7.70;2.28;;;9.30;75.80;;;;;;6125042;22;100142;-73
2022/02/24 03:30:54;;;;;;;7.30;2.20;;;9.30;75.80;;;;;;6152212;22;98849;-74
2022/02/24 03:33:21;;;;;;;11.57;2.08;;;9.30;75.50;;;;;;6152699;22;98092;-74
2022/02/24 03:35:48;;;;;;;6.43;2.30;;;9.30;75.40;;;;;;6124575;22;101896;-74
2022/02/24 03:38:15;;;;;;;8.60;2.53;;;9.30;75.20;;;;;;6125426;22;98871;-74
2022/02/24 03:40:42;;;;;;;9.02;2.38;;;9.30;75.50;;;;;;6125118;22;99869;-73
2022/02/24 03:43:08;;;;;;;7.63;2.15;;;9.20;75.70;;;;;;6151781;22;98446;-74
2022/02/24 03:45:35;;;;;;;8.40;2.72;;;9.30;75.70;;;;;;6124966;22;101999;-74
2022/02/24 03:48:03;;;;;;;11.80;2.63;;;9.20;75.50;;;;;;6151407;22;99440;-74
2022/02/24 03:50:30;;;;;;;8.25;2.22;;;9.30;75.20;;;;;;6152261;22;98382;-74
2022/02/24 03:52:59;;;;;;;8.35;2.38;;;9.20;75.40;;;;;;6124993;22;98497;-74
2022/02/24 03:55:26;;;;;;;5.70;2.05;;;9.30;75.50;;;;;;6151671;22;99172;-73
2022/02/24 03:57:53;;;;;;;8.60;2.17;;;9.30;75.10;;;;;;6125171;22;107425;-74
2022/02/24 04:00:20;;;;;;;7.78;2.20;;;9.20;75.20;;;;;;6152242;22;98987;-74
2022/02/24 04:02:47;;;;;;;7.47;2.28;;;9.20;75.30;;;;;;6125217;22;98505;-74
2022/02/24 04:05:15;;;;;;;11.25;2.00;;;9.20;75.20;;;;;;6099565;22;99998;-74
2022/02/24 04:07:44;;;;;;;10.30;2.50;;;9.20;75.40;;;;;;6125356;22;99778;-73
2022/02/24 04:10:10;;;;;;;8.88;2.42;;;9.20;75.30;;;;;;6125036;22;98547;-73
2022/02/24 04:12:40;;;;;;;10.82;2.42;;;9.10;75.00;;;;;;6100532;22;98590;-73
2022/02/24 04:15:07;;;;;;;12.85;2.85;;;9.10;75.50;;;;;;6124680;22;101726;-74
2022/02/24 04:17:34;;;;;;;5.70;2.13;;;9.20;75.50;;;;;;6100205;22;101616;-74
2022/02/24 04:20:01;;;;;;;8.73;2.55;;;9.20;75.20;;;;;;6124960;22;98880;-73
2022/02/24 04:22:28;;;;;;;7.78;2.25;;;9.20;75.20;;;;;;6126023;22;98204;-73
2022/02/24 04:24:58;;;;;;;10.07;2.20;;;9.20;75.30;;;;;;6123839;22;100269;-74
2022/02/24 04:27:25;;;;;;;8.73;1.90;;;9.20;75.20;;;;;;6151445;22;98941;-73
2022/02/24 04:29:52;;;;;;;8.60;2.20;;;9.20;75.10;;;;;;6151872;22;99698;-73
2022/02/24 04:32:19;;;;;;;6.50;2.33;;;9.20;75.20;;;;;;6125129;22;98564;-73
2022/02/24 04:34:46;;;;;;;7.18;2.22;;;9.10;75.50;;;;;;6124528;22;101739;-74
2022/02/24 04:37:14;;;;;;;8.88;2.33;;;9.20;76.10;;;;;;6099992;22;100027;-74
2022/02/24 04:39:41;;;;;;;8.93;2.30;;;9.20;75.70;;;;;;6125217;22;98448;-74
2022/02/24 04:42:08;;;;;;;8.77;2.20;;;9.20;75.50;;;;;;6151599;22;98499;-74
2022/02/24 04:44:35;;;;;;;6.75;2.08;;;9.20;75.50;;;;;;6075725;22;101928;-74
2022/02/24 04:47:02;;;;;;;8.93;2.30;;;9.20;75.70;;;;;;6151992;22;98852;-74
2022/02/24 04:49:29;;;;;;;7.03;2.17;;;9.20;76.00;;;;;;6125399;22;98511;-74
2022/02/24 04:51:56;;;;;;;6.60;2.50;;;9.20;76.20;;;;;;6151869;22;98457;-74
2022/02/24 04:54:24;;;;;;;10.70;2.60;;;9.20;76.20;;;;;;6150894;22;100509;-74
2022/02/24 04:56:51;;;;;;;6.20;2.13;;;9.20;76.10;;;;;;6151632;22;99686;-74
2022/02/24 04:59:18;;;;;;;7.47;2.35;;;9.20;76.30;;;;;;6125096;22;98428;-73
2022/02/24 05:01:45;;;;;;;7.97;2.63;;;9.20;76.30;;;;;;6151816;22;98457;-74
2022/02/24 05:04:12;;;;;;;5.93;2.30;;;9.20;76.60;;;;;;6151104;22;99313;-73
2022/02/24 05:06:39;;;;;;;8.25;2.72;;;9.20;76.70;;;;;;6125043;22;98982;-73
2022/02/24 05:09:06;;;;;;;6.32;2.42;;;9.20;77.00;;;;;;6125199;22;98555;-74
2022/02/24 05:11:33;;;;;;;13.07;4.00;;;9.10;77.50;;;;;;6151646;22;97741;-74
2022/02/24 05:14:00;;;;;;;13.07;2.97;;;9.10;77.00;;;;;;6151028;22;99142;-74
2022/02/24 05:16:27;;;;;;;8.35;2.90;;;9.20;77.40;;;;;;6124495;22;101253;-74
2022/02/24 05:18:54;;;;;;;8.35;2.60;;;9.10;77.50;;;;;;6124781;22;99315;-74
2022/02/24 05:21:22;;;;;;;9.43;2.85;;;9.00;77.50;;;;;;6151017;22;100262;-74
2022/02/24 05:23:51;;;;;;;9.68;3.65;;;9.00;78.00;;;;;;6151091;22;99334;-74
2022/02/24 05:26:19;;;;;;;10.02;3.08;;;8.90;78.50;;;;;;6150787;22;98831;-74
2022/02/24 05:28:46;;;;;;;5.13;2.63;;;8.90;78.60;;;;;;6100438;22;98542;-74
2022/02/24 05:31:13;;;;;;;10.35;3.13;;;8.80;78.70;;;;;;6151326;22;98498;-74
2022/02/24 05:33:40;;;;;;;10.25;2.80;;;8.80;78.90;;;;;;6151123;22;99418;-74
2022/02/24 05:36:08;;;;;;;7.00;2.88;;;8.80;79.00;;;;;;6149329;22;103722;-74
2022/02/24 05:38:35;;;;;;;6.80;3.00;;;8.70;79.30;;;;;;6151614;22;98439;-74
2022/02/24 05:41:03;;;;;;;8.90;2.67;;;8.80;79.40;;;;;;6124003;22;104544;-73
2022/02/24 05:43:30;;;;;;;8.98;3.35;;;8.80;79.60;;;;;;6123547;22;100908;-74
2022/02/24 05:45:57;;;;;;;9.40;3.08;;;8.80;79.80;;;;;;6123969;22;102377;-74
2022/02/24 05:48:25;;;;;;;9.75;3.08;;;8.80;79.80;;;;;;6151192;22;98523;-73
2022/02/24 05:50:52;;;;;;;10.43;2.67;;;8.80;79.70;;;;;;6151495;22;98835;-74
2022/02/24 05:53:19;;;;;;;5.78;2.78;;;8.80;79.70;;;;;;6099848;22;99462;-74
2022/02/24 05:55:45;;;;;;;7.07;2.75;;;8.80;79.70;;;;;;6150945;22;98995;-73
2022/02/24 05:58:13;;;;;;;7.97;2.85;;;8.80;79.60;;;;;;6099833;22;98611;-74
2022/02/24 06:00:40;;;;;;;9.90;3.88;;;8.90;79.70;;;;;;6125612;22;98106;-74
2022/02/24 06:03:10;;;;;;;6.80;3.08;;;8.80;79.70;;;;;;6150505;22;99218;-74
2022/02/24 06:05:37;;;;;;;6.97;2.95;;;8.80;79.90;;;;;;6098691;22;105412;-73
2022/02/24 06:08:04;;;;;;;8.77;3.28;;;8.80;79.70;;;;;;6150600;22;99206;-73
2022/02/24 06:10:31;;;;;;;7.80;3.10;;;8.80;79.90;;;;;;6150997;22;98452;-73
2022/02/24 06:12:58;;;;;;;11.27;2.90;;;8.80;79.70;;;;;;6145998;22;101813;-73
2022/02/24 06:15:26;;;;;;;11.73;6.25;;;8.80;80.10;;;;;;6150447;22;98916;-74
2022/02/24 06:17:53;;;;;;;8.15;2.72;;;8.80;80.40;;;;;;6124240;22;98617;-73
2022/02/24 06:20:20;;;;;;;10.23;2.78;;;8.80;80.10;;;;;;6149060;22;98520;-74
2022/02/24 06:22:48;;;;;;;9.63;3.50;;;8.80;80.20;;;;;;6150788;22;99373;-74
2022/02/24 06:25:15;;;;;;;9.20;2.85;;;8.80;79.70;;;;;;6149200;22;98771;-73
2022/02/24 06:27:42;;;;;;;11.32;2.92;;;8.80;79.60;;;;;;6124803;22;98431;-74
2022/02/24 06:30:09;;;;;;;12.02;2.90;;;8.80;79.40;;;;;;6123888;22;98973;-74
2022/02/24 06:32:37;;;;;;;7.75;3.08;;;8.80;79.60;;;;;;6148613;22;99945;-74
2022/02/24 06:35:05;;;;;;;7.55;2.97;;;8.80;79.50;;;;;;6150474;22;100090;-74
2022/02/24 06:37:32;;;;;;;9.15;3.08;;;8.80;79.10;;;;;;6150913;22;98805;-74
2022/02/24 06:39:59;;;;;;;14.45;3.40;;;8.90;79.50;;;;;;6150842;22;98464;-74
2022/02/24 06:42:26;;;;;;;10.60;3.80;;;8.90;79.30;;;;;;6150153;22;99018;-74
2022/02/24 06:44:53;;;;;;;9.88;3.20;;;8.90;79.30;;;;;;6150347;22;98953;-74
2022/02/24 06:47:20;;;;;;;12.13;3.20;;;8.90;79.70;;;;;;6123725;22;98482;-74
2022/02/24 06:49:47;;;;;;;7.78;3.20;;;9.00;79.00;;;;;;6152916;22;98037;-74
2022/02/24 06:52:14;;;;;;;11.15;4.28;;;9.00;78.90;;;;;;6123882;22;120386;-74
2022/02/24 06:54:41;;;;;;;7.60;2.67;;;8.90;79.20;;;;;;6124781;22;101588;-74
2022/02/24 06:57:08;;;;;;;8.95;3.28;;;9.00;79.30;;;;;;6152167;22;99980;-74
2022/02/24 06:59:37;;;;;;;9.05;3.45;;;9.00;79.30;;;;;;6150780;22;98482;-74
2022/02/24 07:02:06;;;;;;;9.60;3.45;;;9.00;79.40;;;;;;6124834;22;101931;-74
2022/02/24 07:04:33;;;;;;;9.45;3.30;;;9.00;79.30;;;;;;6125229;22;99019;-74
2022/02/24 07:07:01;;;;;;;8.77;3.15;;;9.00;79.10;;;;;;6151098;22;99088;-74
2022/02/24 07:09:28;;;;;;;9.23;3.22;;;9.10;79.00;;;;;;6125207;22;98794;-74
2022/02/24 07:11:56;;;;;;;9.07;3.22;;;9.20;78.80;;;;;;6100182;22;102171;-74
2022/02/24 07:14:23;;;;;;;10.82;7.28;;;9.20;78.70;;;;;;6152099;22;98936;-74
2022/02/24 07:16:50;;;;;;;8.25;2.42;;;9.20;78.50;;;;;;6152332;22;98380;-74
2022/02/24 07:19:18;;;;;;;8.77;2.80;;;9.20;78.50;;;;;;6100747;22;98557;-74
2022/02/24 07:21:45;;;;;;;7.82;2.60;;;9.20;78.40;;;;;;6125341;22;99903;-74
2022/02/24 07:24:12;;;;;;;8.63;3.92;;;9.30;78.50;;;;;;6125402;22;99522;-74
2022/02/24 07:26:39;;;;;;;9.30;3.50;;;9.20;77.80;;;;;;6151875;22;98384;-74
2022/02/24 07:29:06;;;;;;;9.88;2.72;;;9.30;78.20;;;;;;6125865;22;98476;-74
2022/02/24 07:31:34;;;;;;;7.22;2.95;;;9.40;78.10;;;;;;6125301;22;99327;-74
2022/02/24 07:34:04;;;;;;;13.25;3.67;;;9.40;78.00;;;;;;6124798;22;101522;-74
2022/02/24 07:36:32;;;;;;;11.82;3.45;;;9.50;78.10;;;;;;6151947;22;98362;-74
2022/02/24 07:38:59;;;;;;;11.52;5.10;;;9.50;77.80;;;;;;6126309;22;98176;-74
2022/02/24 07:41:26;;;;;;;7.63;3.05;;;9.60;77.60;;;;;;6151442;22;99286;-74
2022/02/24 07:43:53;;;;;;;8.05;3.22;;;9.60;77.50;;;;;;6151773;22;99015;-74
2022/02/24 07:46:20;;;;;;;11.18;3.88;;;9.70;77.70;;;;;;6151436;22;99081;-74
2022/02/24 07:48:47;;;;;;;9.90;3.80;;;9.80;77.30;;;;;;6152166;22;98422;-74
2022/02/24 07:51:14;;;;;;;10.30;3.72;;;9.80;77.10;;;;;;6125325;22;99143;-74
2022/02/24 07:53:41;;;;;;;9.98;3.40;;;9.90;77.30;;;;;;6124532;22;101673;-74
2022/02/24 07:56:08;;;;;;;10.32;4.90;;;9.90;76.80;;;;;;6100851;22;98501;-74
2022/02/24 07:58:35;;;;;;;10.18;4.03;;;10.00;76.60;;;;;;6151371;22;98474;-74
2022/02/24 08:01:02;;;;;;;7.88;3.33;;;10.00;77.00;;;;;;6151691;22;102359;-73
2022/02/24 08:03:29;;;;;;;10.55;3.92;;;10.00;76.60;;;;;;6151636;22;98999;-74
2022/02/24 08:05:57;;;;;;;10.55;3.47;;;10.00;77.00;;;;;;6151756;22;98455;-74
2022/02/24 08:08:24;;;;;;;5.95;3.55;;;10.10;76.80;;;;;;6151423;22;98475;-74
2022/02/24 08:10:51;;;;;;;9.02;3.88;;;10.10;76.80;;;;;;6150745;22;99898;-74
2022/02/24 08:13:19;;;;;;;9.95;4.18;;;10.10;76.90;;;;;;6125588;22;99624;-74
2022/02/24 08:15:46;;;;;;;9.02;3.85;;;10.20;76.60;;;;;;6125039;22;98571;-74
2022/02/24 08:18:15;;;;;;;9.40;4.43;;;10.30;76.50;;;;;;6125450;22;98437;-74
2022/02/24 08:20:42;;;;;;;10.38;4.25;;;10.40;76.70;;;;;;6124274;22;102289;-74
2022/02/24 08:23:10;;;;;;;11.13;3.78;;;10.50;76.20;;;;;;6151533;22;99590;-74
2022/02/24 08:25:38;;;;;;;9.15;3.47;;;10.60;75.50;;;;;;6124605;22;98555;-74
2022/02/24 08:28:05;;;;;;;9.70;3.90;;;10.70;75.50;;;;;;6125668;22;97705;-74
2022/02/24 08:30:32;;;;;;;13.30;4.07;;;10.80;75.20;;;;;;6151389;22;99171;-74
2022/02/24 08:33:00;;;;;;;11.80;4.10;;;10.80;75.10;;;;;;6124659;22;101424;-74
2022/02/24 08:35:27;;;;;;;11.50;3.83;;;10.90;74.20;;;;;;6124925;22;99224;-74
2022/02/24 08:37:54;;;;;;;12.38;4.38;;;11.00;74.30;;;;;;6125610;22;98866;-74
2022/02/24 08:40:23;;;;;;;5.63;3.55;;;11.00;74.00;;;;;;6151458;22;99327;-74
2022/02/24 08:42:51;;;;;;;8.77;3.60;;;11.10;73.90;;;;;;6099578;22;99945;-74
2022/02/24 08:45:19;;;;;;;9.13;3.63;;;11.10;74.00;;;;;;6151357;22;101395;-74
2022/02/24 08:47:47;;;;;;;12.38;4.07;;;11.10;74.10;;;;;;6151608;22;99028;-74
2022/02/24 08:50:15;;;;;;;14.05;4.30;;;11.20;74.20;;;;;;6124957;22;99167;-74
2022/02/24 08:53:03;;;;;;;9.77;3.40;;;11.20;74.10;;;;;;6151846;22;99324;-74
2022/02/24 08:55:31;;;;;;;12.80;3.97;;;11.40;73.80;;;;;;6125271;22;98511;-74
2022/02/24 08:57:58;;;;;;;8.75;3.65;;;11.40;73.70;;;;;;6125014;22;98505;-74
2022/02/24 09:00:28;;;;;;;12.77;3.92;;;11.50;73.70;;;;;;6123780;22;102946;-74
2022/02/24 09:02:55;;;;;;;11.88;4.18;;;11.50;73.40;;;;;;6151184;22;99711;-74
2022/02/24 09:05:22;;;;;;;9.93;3.90;;;11.40;73.60;;;;;;6151880;22;98548;-74
2022/02/24 09:07:49;;;;;;;11.40;4.05;;;11.50;73.80;;;;;;6124596;22;98635;-74
2022/02/24 09:10:36;;;;;;;12.02;4.40;;;11.50;73.80;;;;;;6150531;22;99285;-74
2022/02/24 09:13:04;;;;;;;8.50;3.90;;;11.60;73.70;;;;;;6091814;22;114308;-74
2022/02/24 09:15:32;;;;;;;10.10;3.90;;;11.70;73.40;;;;;;6151909;22;98817;-74
2022/02/24 09:18:06;;;;;;;9.95;3.95;;;11.70;73.70;;;;;;6102219;22;97740;-74
2022/02/24 09:20:36;;;;;;;9.48;4.00;;;11.80;73.90;;;;;;6150908;22;99414;-74
2022/02/24 09:23:03;;;;;;;7.72;3.38;;;11.80;73.50;;;;;;6125069;22;98868;-74
2022/02/24 09:25:30;;;;;;;9.00;3.40;;;11.80;73.40;;;;;;6124721;22;99250;-73
2022/02/24 09:27:57;;;;;;;13.43;4.82;;;11.80;73.60;;;;;;6100262;22;98570;-74
2022/02/24 09:30:25;;;;;;;10.38;4.35;;;11.90;73.70;;;;;;6124190;22;101919;-74
2022/02/24 09:32:55;;;;;;;8.98;3.70;;;12.00;73.50;;;;;;6099992;22;100456;-74
2022/02/24 09:35:23;;;;;;;9.82;3.88;;;12.20;73.20;;;;;;6151640;22;98368;-73
2022/02/24 09:37:50;;;;;;;14.73;3.97;;;12.30;72.90;;;;;;6151179;22;98428;-74
2022/02/24 09:40:17;;;;;;;7.53;3.92;;;12.30;72.60;;;;;;6100123;22;99006;-74
2022/02/24 09:43:05;;;;;;;16.90;8.75;;;12.40;72.40;;;;;;6151327;22;99153;-74
2022/02/24 09:45:33;;;;;;;6.85;3.08;;;12.50;72.00;;;;;;6125480;22;98557;-73
2022/02/24 09:48:05;;;;;;;7.38;4.30;;;12.50;71.80;;;;;;6151184;22;98469;-74
2022/02/24 09:50:33;;;;;;;8.90;4.20;;;12.70;71.80;;;;;;6124029;22;99963;-74
2022/02/24 09:53:02;;;;;;;9.95;4.10;;;12.70;71.30;;;;;;6150861;22;99620;-74
2022/02/24 09:55:29;;;;;;;9.80;3.55;;;12.70;70.70;;;;;;6124400;22;98500;-74
2022/02/24 09:57:56;;;;;;;9.02;3.30;;;12.80;71.10;;;;;;6124332;22;98458;-74
2022/02/24 10:00:23;;;;;;;9.40;3.55;;;12.80;70.70;;;;;;6123977;22;101762;-74
2022/02/24 10:02:50;;;;;;;6.40;3.38;;;12.80;71.00;;;;;;6117934;22;99022;-74
2022/02/24 10:05:17;;;;;;;7.93;3.58;;;12.70;71.20;;;;;;6151056;22;98482;-74
2022/02/24 10:07:46;;;;;;;9.32;3.10;;;12.80;71.40;;;;;;6124499;22;97805;-73
2022/02/24 10:10:31;;;;;;;7.60;3.28;;;12.80;71.20;;;;;;6099857;22;99293;-74
2022/02/24 10:13:02;;;;;;;7.47;2.70;;;13.00;70.80;;;;;;6150043;22;98647;-74
2022/02/24 10:15:29;;;;;;;10.02;3.17;;;13.10;70.60;;;;;;6124222;22;99676;-74
2022/02/24 10:18:06;;;;;;;10.50;3.33;;;13.10;70.40;;;;;;6150893;22;98420;-74
2022/02/24 10:20:42;;;;;;;8.43;3.30;;;13.20;69.80;;;;;;6150655;22;99239;-74
2022/02/24 10:23:11;;;;;;;8.30;3.40;;;13.20;69.80;;;;;;6124821;22;99045;-74
2022/02/24 10:25:52;;;;;;;9.48;3.45;;;13.20;69.40;;;;;;6152379;22;98469;-74
2022/02/24 10:28:34;;;;;;;7.90;3.40;;;13.30;69.30;;;;;;6152536;22;98464;-74
2022/02/24 10:31:08;;;;;;;7.07;3.72;;;13.40;69.60;;;;;;6151745;22;99253;-74
2022/02/24 10:33:37;;;;;;;6.07;2.80;;;13.40;69.40;;;;;;6126108;22;99138;-74
2022/02/24 10:36:09;;;;;;;9.10;2.90;;;13.40;69.30;;;;;;6125341;22;98581;-74
2022/02/24 10:38:36;;;;;;;5.30;2.85;;;13.40;69.00;;;;;;6152391;22;98494;-74
2022/02/24 10:41:03;;;;;;;8.60;3.42;;;13.40;69.00;;;;;;6150669;22;110696;-74
2022/02/24 10:43:32;;;;;;;7.38;3.10;;;13.30;69.10;;;;;;6151808;22;99631;-74
2022/02/24 10:46:08;;;;;;;7.72;3.58;;;13.30;69.40;;;;;;6125999;22;99029;-74
2022/02/24 10:48:51;;;;;;;5.30;2.92;;;13.30;69.80;;;;;;6125532;22;98611;-74
2022/02/24 10:51:24;;;;;;;10.23;3.03;;;13.40;70.20;;;;;;6125149;22;101711;-74
2022/02/24 10:54:13;;;;;;;6.63;2.90;;;13.40;69.90;;;;;;6125193;22;99076;-74
2022/02/24 10:56:42;;;;;;;5.78;2.53;;;13.50;69.00;;;;;;6125654;22;98964;-74
2022/02/24 10:59:12;;;;;;;5.88;2.88;;;13.40;69.20;;;;;;6125475;22;97783;-74
2022/02/24 11:01:40;;;;;;;6.38;2.53;;;13.40;69.50;;;;;;6100841;22;101723;-74
2022/02/24 11:04:08;;;;;;;5.57;2.25;;;13.40;68.80;;;;;;6100878;22;98878;-74
2022/02/24 11:06:37;;;;;;;6.25;2.45;;;13.40;69.40;;;;;;6151921;22;99658;-74
2022/02/24 11:09:06;;;;;;;4.65;2.33;;;13.20;70.10;;;;;;6124991;22;98600;-74
2022/02/24 11:11:37;;;;;;;6.35;2.72;;;13.10;70.20;;;;;;6125431;22;99321;-74
2022/02/24 11:14:10;;;;;;;6.82;2.65;;;13.10;70.70;;;;;;6124967;22;101660;-74
2022/02/24 11:16:37;;;;;;;8.88;2.63;;;13.30;70.90;;;;;;6152464;22;98427;-74
2022/02/24 11:19:05;;;;;;;6.85;2.70;;;13.40;70.50;;;;;;6125259;22;98519;-74
2022/02/24 11:21:33;;;;;;;7.88;2.83;;;13.50;70.20;;;;;;6124797;22;101973;-74
2022/02/24 11:24:00;;;;;;;7.38;2.63;;;13.50;70.00;;;;;;6125650;22;98980;-74
2022/02/24 11:26:35;;;;;;;4.75;1.95;;;13.50;69.70;;;;;;6125968;22;98587;-74
2022/02/24 11:29:32;;;;;;;5.25;2.60;;;13.70;69.40;;;;;;6152017;22;98514;-74
2022/02/24 11:32:10;;;;;;;6.43;2.83;;;13.80;69.10;;;;;;6124464;22;102493;-74
2022/02/24 11:34:57;;;;;;;4.47;2.40;;;13.80;69.10;;;;;;6122981;22;112318;-74
2022/02/24 11:37:34;;;;;;;5.20;2.13;;;13.80;68.90;;;;;;6150678;22;99089;-74
2022/02/24 11:40:06;;;;;;;9.88;2.80;;;13.80;68.80;;;;;;6125686;22;98509;-74
2022/02/24 11:42:37;;;;;;;7.05;2.22;;;13.80;69.00;;;;;;6151857;22;99056;-74
2022/02/24 11:45:25;;;;;;;6.50;2.50;;;13.80;69.00;;;;;;6149816;22;101518;-74
2022/02/24 11:48:04;;;;;;;6.50;2.30;;;13.80;68.30;;;;;;6125101;22;100281;-74
2022/02/24 11:50:45;;;;;;;9.75;2.65;;;13.80;68.40;;;;;;6152737;22;97718;-74
2022/02/24 11:53:27;;;;;;;9.77;2.65;;;13.90;68.20;;;;;;6151290;22;99298;-74
2022/02/24 11:56:03;;;;;;;7.22;2.30;;;13.90;68.30;;;;;;6125189;22;98803;-74
2022/02/24 11:58:42;;;;;;;5.28;3.05;;;14.00;68.20;;;;;;6151816;22;99126;-74
2022/02/24 12:01:11;;;;;;;5.88;2.20;;;13.90;67.90;;;;;;6152072;22;98812;-74
2022/02/24 12:03:44;;;;;;;6.50;2.30;;;13.90;67.90;;;;;;6146519;22;99396;-74
2022/02/24 12:06:17;;;;;;;7.30;2.55;;;13.90;68.20;;;;;;6121300;23;98955;-74
2022/02/24 12:09:00;;;;;;;7.85;2.53;;;14.00;68.20;;;;;;6122233;23;98619;-74
2022/02/24 12:11:35;;;;;;;8.20;2.15;;;14.10;67.90;;;;;;6095365;23;98453;-74
2022/02/24 12:14:19;;;;;;;6.60;2.03;;;14.00;66.80;;;;;;6065553;23;99177;-74
2022/02/24 12:17:04;;;;;;;7.80;2.22;;;14.10;66.50;;;;;;6090787;23;98938;-74
2022/02/24 12:19:47;;;;;;;5.63;1.88;;;14.10;66.40;;;;;;6092345;23;98463;-74
2022/02/24 12:22:22;;;;;;;4.70;2.00;;;14.10;65.70;;;;;;6065715;23;98576;-74
2022/02/24 12:24:53;;;;;;;5.32;1.90;;;14.00;65.90;;;;;;6065017;23;102422;-74
2022/02/24 12:27:33;;;;;;;4.50;1.70;;;14.00;66.20;;;;;;6089896;23;102705;-74
2022/02/24 12:30:13;;;;;;;8.43;2.50;;;14.10;66.20;;;;;;6065884;23;98572;-74
2022/02/24 12:33:07;;;;;;;8.55;2.30;;;14.10;66.20;;;;;;6090670;23;98620;-74
2022/02/24 12:35:38;;;;;;;5.97;2.10;;;14.10;65.90;;;;;;6088527;23;98987;-74
2022/02/24 12:38:07;;;;;;;4.78;1.70;;;14.20;66.00;;;;;;6065036;23;100698;-74
2022/02/24 12:40:41;;;;;;;6.03;1.77;;;14.20;65.90;;;;;;6065802;23;98957;-73
2022/02/24 12:43:11;;;;;;;8.25;2.13;;;14.10;65.20;;;;;;6092307;23;97682;-74
2022/02/24 12:45:42;;;;;;;5.72;1.90;;;14.10;65.50;;;;;;6091193;23;99324;-74
2022/02/24 12:48:10;;;;;;;5.10;2.10;;;14.00;65.80;;;;;;6064853;23;101696;-74
2022/02/24 12:50:43;;;;;;;7.25;2.30;;;14.10;65.80;;;;;;6065568;23;99783;-74
2022/02/24 12:53:21;;;;;;;10.50;2.05;;;14.10;65.60;;;;;;6065596;23;98548;-74
2022/02/24 12:55:52;;;;;;;7.47;2.40;;;14.10;65.20;;;;;;6090154;23;99355;-74
2022/02/24 12:58:20;;;;;;;5.70;2.10;;;14.10;65.50;;;;;;6089706;23;99078;-74